Time;durP1;ratioP1;P1;durP2;ratioP2;P2;SDS_P1;SDS_P2;PMS_P1;PMS_P2;Temp;Humidity;BMP_temperature;BMP_pressure;BME280_temperature;BME280_humidity;BME280_pressure;Samples;Min_cycle;Max_cycle;Signal;HPM_P1;HPM_P2
2023/06/01 00:00:33;;;;;;;34.47;8.13;;;22.70;53.20;;;;;;5011434;28;20279;-89
2023/06/01 00:03:03;;;;;;;34.20;8.30;;;22.70;53.20;;;;;;5010515;28;20201;-88
2023/06/01 00:05:31;;;;;;;43.07;8.97;;;22.70;53.20;;;;;;5004288;28;20249;-88
2023/06/01 00:07:59;;;;;;;35.77;8.47;;;22.70;53.20;;;;;;5008433;28;20206;-87
2023/06/01 00:10:26;;;;;;;34.30;7.97;;;22.60;53.20;;;;;;5001339;28;20229;-88
2023/06/01 00:12:53;;;;;;;33.30;7.97;;;22.60;53.20;;;;;;5009439;28;20204;-88
2023/06/01 00:15:20;;;;;;;29.77;8.30;;;22.60;53.20;;;;;;5010748;28;20725;-88
2023/06/01 00:17:51;;;;;;;32.77;8.33;;;22.60;53.20;;;;;;5010901;28;20657;-88
2023/06/01 00:20:18;;;;;;;33.23;8.80;;;22.60;53.20;;;;;;5009602;28;20270;-88
2023/06/01 00:22:48;;;;;;;33.97;7.67;;;22.60;53.20;;;;;;5009377;28;20209;-88
2023/06/01 00:25:15;;;;;;;39.63;9.43;;;22.60;53.20;;;;;;5005198;28;20292;-88
2023/06/01 00:27:42;;;;;;;34.17;8.47;;;22.50;53.20;;;;;;4991456;28;20248;-88
2023/06/01 00:30:10;;;;;;;33.93;7.77;;;22.50;53.20;;;;;;5008511;28;20245;-88
2023/06/01 00:32:37;;;;;;;79.43;12.30;;;22.50;53.20;;;;;;5006980;28;20642;-88
2023/06/01 00:35:04;;;;;;;32.80;8.40;;;22.50;53.20;;;;;;5009041;28;20661;-89
2023/06/01 00:37:31;;;;;;;33.07;8.40;;;22.50;53.20;;;;;;5003078;28;20210;-90
2023/06/01 00:40:00;;;;;;;47.47;9.90;;;22.50;53.20;;;;;;5005989;28;21053;-89
2023/06/01 00:42:27;;;;;;;34.73;8.83;;;22.50;53.20;;;;;;5004526;28;20222;-88
2023/06/01 00:44:54;;;;;;;47.70;10.20;;;22.50;53.20;;;;;;5007068;28;20208;-92
2023/06/01 00:47:21;;;;;;;57.77;10.30;;;22.50;53.20;;;;;;5007299;28;20229;-88
2023/06/01 00:49:48;;;;;;;40.43;9.17;;;22.40;53.10;;;;;;5005913;28;20197;-91
2023/06/01 00:52:16;;;;;;;36.27;9.00;;;22.40;53.10;;;;;;5009246;28;20200;-89
2023/06/01 00:54:43;;;;;;;35.40;8.77;;;22.40;53.10;;;;;;5008987;28;20217;-90
2023/06/01 00:57:12;;;;;;;42.40;9.27;;;22.40;53.20;;;;;;5009137;28;20235;-88
2023/06/01 00:59:39;;;;;;;44.97;10.03;;;22.40;53.10;;;;;;5007727;28;20279;-88
2023/06/01 01:02:08;;;;;;;38.33;9.17;;;22.30;53.10;;;;;;5002546;28;20251;-89
2023/06/01 01:04:35;;;;;;;31.67;9.10;;;22.40;53.10;;;;;;5007768;28;20197;-89
2023/06/01 01:07:10;;;;;;;35.33;8.77;;;22.30;53.00;;;;;;5007496;28;20323;-89
2023/06/01 01:09:45;;;;;;;33.43;8.80;;;22.30;53.10;;;;;;5008591;28;20204;-89
2023/06/01 01:12:24;;;;;;;38.57;9.73;;;22.30;53.10;;;;;;5007739;28;20672;-88
2023/06/01 01:14:55;;;;;;;36.77;9.03;;;22.30;53.00;;;;;;5005427;28;20619;-88
2023/06/01 01:17:32;;;;;;;31.47;8.73;;;22.30;53.00;;;;;;5008821;28;20704;-87
2023/06/01 01:20:08;;;;;;;52.97;10.87;;;22.20;52.90;;;;;;4998847;28;20352;-89
2023/06/01 01:23:05;;;;;;;41.80;9.77;;;22.20;52.90;;;;;;5005764;28;20207;-87
2023/06/01 01:26:16;;;;;;;37.53;9.30;;;22.20;52.90;;;;;;5007710;28;20291;-88
2023/06/01 01:28:49;;;;;;;40.27;9.77;;;22.20;52.90;;;;;;4991247;28;20212;-88
2023/06/01 01:31:23;;;;;;;36.90;9.07;;;22.20;53.00;;;;;;5006307;28;20197;-88
2023/06/01 01:33:53;;;;;;;50.27;10.83;;;22.20;52.90;;;;;;5005901;28;20205;-87
2023/06/01 01:36:21;;;;;;;38.73;10.17;;;22.20;53.00;;;;;;5005893;28;20236;-89
2023/06/01 01:38:49;;;;;;;54.87;11.53;;;22.10;52.90;;;;;;5006799;28;20678;-88
2023/06/01 01:41:16;;;;;;;40.07;10.40;;;22.10;52.90;;;;;;5007979;28;20200;-88
2023/06/01 01:43:45;;;;;;;47.73;10.80;;;22.10;52.90;;;;;;5006858;28;20205;-88
2023/06/01 01:46:22;;;;;;;39.07;10.40;;;22.10;52.90;;;;;;5007717;28;20220;-87
2023/06/01 01:48:55;;;;;;;36.50;10.20;;;22.00;52.80;;;;;;5005690;28;20200;-88
2023/06/01 01:51:28;;;;;;;31.43;10.23;;;22.00;52.80;;;;;;5007746;28;20212;-88
2023/06/01 01:53:57;;;;;;;45.83;10.73;;;22.00;52.80;;;;;;5007011;28;20209;-87
2023/06/01 01:56:25;;;;;;;39.57;9.87;;;22.00;52.80;;;;;;5006271;28;20258;-89
2023/06/01 01:58:54;;;;;;;44.30;10.73;;;22.00;52.90;;;;;;5008170;28;20209;-88
2023/06/01 02:01:21;;;;;;;31.63;9.73;;;22.00;52.90;;;;;;5000100;28;20202;-88
2023/06/01 02:03:58;;;;;;;43.10;10.53;;;22.00;52.90;;;;;;4999764;28;20216;-88
2023/06/01 02:06:25;;;;;;;37.67;10.43;;;21.90;52.80;;;;;;5008524;28;20240;-88
2023/06/01 02:08:52;;;;;;;42.53;10.90;;;21.90;52.90;;;;;;5007990;28;20212;-89
2023/06/01 02:11:19;;;;;;;34.60;10.33;;;21.90;52.90;;;;;;5007739;28;20287;-90
2023/06/01 02:13:49;;;;;;;36.13;8.93;;;21.90;52.90;;;;;;5003220;28;20237;-88
2023/06/01 02:16:18;;;;;;;38.73;10.07;;;21.90;52.90;;;;;;5007931;28;20224;-89
2023/06/01 02:18:45;;;;;;;38.23;10.60;;;21.80;52.80;;;;;;5007965;28;20213;-89
2023/06/01 02:21:13;;;;;;;35.10;10.03;;;21.80;52.80;;;;;;5008999;28;20216;-88
2023/06/01 02:23:41;;;;;;;47.33;11.10;;;21.80;52.80;;;;;;5007198;28;20731;-90
2023/06/01 02:26:09;;;;;;;35.07;9.90;;;21.80;52.90;;;;;;5006381;28;20275;-89
2023/06/01 02:28:38;;;;;;;57.53;11.43;;;21.80;52.90;;;;;;5005029;28;20200;-90
2023/06/01 02:31:05;;;;;;;38.93;10.07;;;21.80;52.90;;;;;;5004160;28;20200;-89
2023/06/01 02:33:36;;;;;;;37.87;10.33;;;21.70;52.80;;;;;;5007524;28;20214;-89
2023/06/01 02:36:03;;;;;;;38.83;10.67;;;21.70;52.80;;;;;;5007341;28;20232;-89
2023/06/01 02:38:30;;;;;;;32.93;9.27;;;21.80;52.90;;;;;;5001940;28;20209;-88
2023/06/01 02:40:57;;;;;;;45.17;9.97;;;21.70;52.90;;;;;;5007387;28;20209;-89
2023/06/01 02:43:23;;;;;;;47.13;10.83;;;21.70;52.90;;;;;;5007117;28;20599;-88
2023/06/01 02:45:50;;;;;;;37.60;10.10;;;21.70;52.90;;;;;;5008423;28;20566;-87
2023/06/01 02:48:17;;;;;;;37.37;9.37;;;21.60;52.80;;;;;;5010559;28;20325;-87
2023/06/01 02:50:45;;;;;;;39.70;9.83;;;21.70;52.90;;;;;;5007359;28;20208;-87
2023/06/01 02:53:12;;;;;;;42.57;10.13;;;21.60;52.80;;;;;;5008925;28;20222;-88
2023/06/01 02:55:39;;;;;;;44.30;10.70;;;21.60;52.80;;;;;;5010540;28;20216;-88
2023/06/01 02:58:08;;;;;;;49.90;10.90;;;21.60;52.80;;;;;;5010849;28;20581;-89
2023/06/01 03:00:35;;;;;;;38.73;9.80;;;21.60;52.90;;;;;;5010530;28;20205;-87
2023/06/01 03:03:03;;;;;;;52.83;10.73;;;21.60;52.90;;;;;;5003574;28;20243;-87
2023/06/01 03:05:32;;;;;;;41.13;10.50;;;21.60;52.80;;;;;;5010982;28;20235;-88
2023/06/01 03:08:01;;;;;;;45.33;10.40;;;21.50;52.80;;;;;;5009750;28;20629;-87
2023/06/01 03:10:28;;;;;;;51.70;11.10;;;21.50;52.80;;;;;;4996403;28;20209;-86
2023/06/01 03:12:56;;;;;;;57.53;11.93;;;21.50;52.80;;;;;;5007554;28;20202;-87
2023/06/01 03:15:23;;;;;;;44.60;11.37;;;21.50;52.80;;;;;;5003373;28;20222;-87
2023/06/01 03:17:51;;;;;;;50.30;11.57;;;21.50;52.80;;;;;;5011142;28;20212;-88
2023/06/01 03:20:18;;;;;;;55.57;12.17;;;21.50;52.90;;;;;;5008904;28;20658;-87
2023/06/01 03:22:46;;;;;;;36.00;10.47;;;21.50;52.90;;;;;;5006827;28;20225;-87
2023/06/01 03:25:14;;;;;;;48.30;11.73;;;21.50;52.90;;;;;;5008796;28;20204;-87
2023/06/01 03:27:41;;;;;;;42.83;11.50;;;21.50;52.90;;;;;;5007302;28;20567;-89
2023/06/01 03:30:10;;;;;;;39.90;11.07;;;21.40;52.80;;;;;;5010175;28;20201;-88
2023/06/01 03:32:38;;;;;;;42.43;11.37;;;21.40;52.80;;;;;;5009758;28;20207;-87
2023/06/01 03:35:09;;;;;;;44.23;12.17;;;21.40;52.90;;;;;;5009656;28;20210;-88
2023/06/01 03:37:36;;;;;;;32.07;11.20;;;21.40;52.80;;;;;;5009254;28;20292;-87
2023/06/01 03:40:10;;;;;;;43.43;11.67;;;21.40;52.80;;;;;;5009041;28;20209;-88
2023/06/01 03:42:38;;;;;;;42.80;12.00;;;21.40;52.90;;;;;;5010628;28;20208;-88
2023/06/01 03:45:06;;;;;;;46.00;12.37;;;21.40;52.90;;;;;;5005557;28;20201;-87
2023/06/01 03:47:33;;;;;;;42.33;11.87;;;21.40;52.90;;;;;;5001069;28;20221;-88
2023/06/01 03:50:01;;;;;;;36.90;12.03;;;21.40;52.90;;;;;;5009112;28;20198;-87
2023/06/01 03:52:28;;;;;;;42.10;12.50;;;21.30;52.90;;;;;;5009847;28;20211;-87
2023/06/01 03:54:55;;;;;;;31.43;12.40;;;21.30;52.80;;;;;;5011126;28;20262;-87
2023/06/01 03:57:23;;;;;;;31.57;11.40;;;21.30;52.80;;;;;;5005142;28;20251;-87
2023/06/01 03:59:51;;;;;;;50.23;13.50;;;21.30;52.80;;;;;;5008924;28;20619;-87
2023/06/01 04:02:18;;;;;;;40.90;12.73;;;21.30;52.80;;;;;;5010560;28;20205;-87
2023/06/01 04:04:46;;;;;;;41.97;13.23;;;21.30;52.80;;;;;;5007721;28;20205;-88
2023/06/01 04:07:14;;;;;;;34.50;12.13;;;21.30;52.90;;;;;;5010140;28;20339;-87
2023/06/01 04:09:42;;;;;;;40.97;13.47;;;21.30;52.90;;;;;;5004905;28;20202;-87
2023/06/01 04:12:10;;;;;;;41.87;13.13;;;21.30;52.90;;;;;;5009093;28;20208;-87
2023/06/01 04:14:37;;;;;;;51.63;13.67;;;21.20;52.80;;;;;;5009796;28;20201;-87
2023/06/01 04:17:06;;;;;;;35.00;12.13;;;21.30;52.90;;;;;;5010315;28;20206;-87
2023/06/01 04:19:33;;;;;;;45.67;12.90;;;21.20;52.80;;;;;;5010057;28;20201;-87
2023/06/01 04:22:01;;;;;;;47.33;13.43;;;21.20;52.80;;;;;;5007823;28;20745;-88
2023/06/01 04:24:28;;;;;;;33.97;12.87;;;21.20;53.20;;;;;;5009835;28;20208;-87
2023/06/01 04:26:56;;;;;;;45.00;13.70;;;21.20;52.80;;;;;;5008930;28;20601;-88
2023/06/01 04:29:24;;;;;;;35.10;12.37;;;21.20;52.80;;;;;;5008636;28;20734;-88
2023/06/01 04:31:54;;;;;;;62.03;15.03;;;21.20;52.90;;;;;;5007504;28;20202;-89
2023/06/01 04:34:23;;;;;;;37.37;12.80;;;21.20;52.90;;;;;;5005726;28;20220;-87
2023/06/01 04:36:51;;;;;;;56.60;14.70;;;21.10;52.80;;;;;;5006610;28;20200;-88
2023/06/01 04:39:18;;;;;;;54.97;14.10;;;21.10;52.80;;;;;;5008770;28;20218;-88
2023/06/01 04:41:45;;;;;;;41.13;12.83;;;21.10;52.80;;;;;;5009544;28;20198;-88
2023/06/01 04:44:13;;;;;;;37.77;12.63;;;21.10;52.90;;;;;;5009159;28;20202;-87
2023/06/01 04:46:40;;;;;;;37.40;13.03;;;21.10;52.90;;;;;;5004013;28;20202;-87
2023/06/01 04:49:11;;;;;;;45.80;13.97;;;21.10;52.80;;;;;;5017818;28;20204;-87
2023/06/01 04:51:40;;;;;;;33.13;12.77;;;21.10;53.10;;;;;;5019574;28;20221;-87
2023/06/01 04:54:07;;;;;;;51.77;14.30;;;21.10;52.90;;;;;;5018014;28;20216;-86
2023/06/01 04:56:36;;;;;;;41.17;13.87;;;21.10;52.90;;;;;;5015060;28;20254;-87
2023/06/01 04:59:05;;;;;;;43.57;13.73;;;21.00;52.80;;;;;;5018285;28;20680;-87
2023/06/01 05:01:32;;;;;;;44.00;13.97;;;21.00;52.80;;;;;;5009506;28;20207;-86
2023/06/01 05:04:00;;;;;;;36.53;13.13;;;21.00;52.90;;;;;;5017095;28;20205;-88
2023/06/01 05:06:27;;;;;;;30.67;12.10;;;21.00;52.90;;;;;;5009046;28;20874;-86
2023/06/01 05:08:55;;;;;;;36.93;12.50;;;21.00;52.90;;;;;;5013784;28;20226;-87
2023/06/01 05:11:23;;;;;;;31.23;12.23;;;21.00;52.90;;;;;;5015839;28;20289;-88
2023/06/01 05:13:52;;;;;;;40.87;13.37;;;21.00;52.90;;;;;;5020396;28;20298;-87
2023/06/01 05:16:22;;;;;;;42.27;12.57;;;21.00;52.90;;;;;;5019913;28;20235;-87
2023/06/01 05:18:49;;;;;;;33.57;12.40;;;21.00;52.90;;;;;;5015166;28;20205;-87
2023/06/01 05:21:17;;;;;;;41.10;14.00;;;21.00;52.90;;;;;;5010769;28;20211;-87
2023/06/01 05:23:46;;;;;;;38.07;13.10;;;21.00;52.90;;;;;;5009371;28;20203;-86
2023/06/01 05:26:14;;;;;;;44.17;13.03;;;21.00;52.90;;;;;;5009705;28;20225;-87
2023/06/01 05:28:43;;;;;;;34.87;12.53;;;20.90;52.80;;;;;;5009895;28;20269;-86
2023/06/01 05:31:11;;;;;;;40.33;13.23;;;20.90;52.90;;;;;;5013845;28;20642;-87
2023/06/01 05:33:38;;;;;;;39.80;13.33;;;20.90;52.90;;;;;;5002252;28;20231;-89
2023/06/01 05:36:07;;;;;;;40.60;13.90;;;20.90;52.90;;;;;;5012818;28;20214;-86
2023/06/01 05:38:34;;;;;;;44.73;13.97;;;20.90;52.90;;;;;;5010172;28;20202;-86
2023/06/01 05:41:01;;;;;;;41.23;12.67;;;20.90;52.90;;;;;;5008774;28;20210;-87
2023/06/01 05:43:29;;;;;;;42.00;13.90;;;20.90;52.90;;;;;;5010035;28;20585;-86
2023/06/01 05:45:56;;;;;;;38.60;13.47;;;21.00;53.00;;;;;;5007274;28;20201;-87
2023/06/01 05:48:23;;;;;;;43.17;13.70;;;20.90;53.60;;;;;;5007190;28;20330;-88
2023/06/01 05:50:50;;;;;;;46.03;14.37;;;20.90;52.90;;;;;;5008855;28;20209;-86
2023/06/01 05:53:17;;;;;;;38.73;12.77;;;20.90;53.00;;;;;;5008583;28;20574;-87
2023/06/01 05:55:43;;;;;;;32.33;12.63;;;20.90;53.00;;;;;;5010108;28;20205;-86
2023/06/01 05:58:11;;;;;;;37.60;12.60;;;20.90;53.00;;;;;;5005703;28;20621;-87
2023/06/01 06:00:39;;;;;;;34.30;12.63;;;20.90;52.50;;;;;;4991716;28;20206;-87
2023/06/01 06:03:07;;;;;;;43.37;13.03;;;20.90;53.00;;;;;;5005214;28;20658;-87
2023/06/01 06:05:34;;;;;;;38.27;13.77;;;20.90;53.10;;;;;;5008190;28;20237;-87
2023/06/01 06:08:01;;;;;;;45.00;13.97;;;20.90;53.10;;;;;;5009293;28;20290;-87
2023/06/01 06:10:29;;;;;;;48.93;13.17;;;20.90;53.10;;;;;;5002148;28;20205;-87
2023/06/01 06:12:56;;;;;;;39.20;13.70;;;20.90;53.10;;;;;;5007416;28;20257;-87
2023/06/01 06:15:23;;;;;;;42.30;13.87;;;20.90;53.10;;;;;;5007825;28;20219;-87
2023/06/01 06:17:51;;;;;;;34.93;12.07;;;20.80;53.00;;;;;;5007282;28;20216;-87
2023/06/01 06:20:21;;;;;;;31.43;11.67;;;20.80;53.00;;;;;;5009880;28;20325;-87
2023/06/01 06:22:50;;;;;;;38.10;12.87;;;20.80;53.00;;;;;;5007844;28;20308;-86
2023/06/01 06:25:17;;;;;;;50.53;14.17;;;20.80;53.00;;;;;;5012588;28;20690;-87
2023/06/01 06:27:45;;;;;;;44.43;12.80;;;20.80;53.10;;;;;;5010502;28;20240;-88
2023/06/01 06:30:12;;;;;;;51.37;14.03;;;20.80;53.10;;;;;;5007276;28;20189;-87
2023/06/01 06:32:40;;;;;;;34.07;12.37;;;20.80;53.20;;;;;;5012888;28;20205;-87
2023/06/01 06:35:12;;;;;;;44.47;13.70;;;20.80;53.20;;;;;;5012299;28;20593;-87
2023/06/01 06:37:43;;;;;;;40.90;12.23;;;20.80;53.20;;;;;;5012288;28;20256;-86
2023/06/01 06:40:12;;;;;;;36.97;11.77;;;20.80;53.20;;;;;;5012277;28;20210;-88
2023/06/01 06:42:40;;;;;;;37.17;11.80;;;20.80;53.10;;;;;;5010741;28;20206;-88
2023/06/01 06:45:12;;;;;;;41.30;12.50;;;20.80;53.80;;;;;;5016757;28;20208;-87
2023/06/01 06:47:39;;;;;;;52.40;13.33;;;20.80;53.20;;;;;;5011859;28;20262;-87
2023/06/01 06:50:09;;;;;;;39.10;11.70;;;20.80;53.20;;;;;;5013420;28;20201;-86
2023/06/01 06:52:35;;;;;;;35.70;11.77;;;20.80;53.30;;;;;;5013970;28;20220;-87
2023/06/01 06:55:03;;;;;;;41.23;11.47;;;20.80;53.30;;;;;;5012809;28;20207;-87
2023/06/01 06:57:30;;;;;;;34.07;10.53;;;20.70;53.20;;;;;;5013619;28;20212;-87
2023/06/01 06:59:57;;;;;;;48.23;12.53;;;20.80;53.30;;;;;;5013564;28;20209;-87
2023/06/01 07:02:25;;;;;;;53.30;12.60;;;20.80;53.30;;;;;;5013832;28;20193;-87
2023/06/01 07:04:52;;;;;;;36.17;11.40;;;20.70;53.20;;;;;;5014237;28;20377;-87
2023/06/01 07:07:21;;;;;;;29.83;10.40;;;20.80;53.30;;;;;;5013570;28;20799;-87
2023/06/01 07:09:48;;;;;;;44.23;11.00;;;20.80;53.30;;;;;;5013751;28;20203;-87
2023/06/01 07:12:16;;;;;;;30.07;10.40;;;20.80;53.30;;;;;;5013555;28;20239;-87
2023/06/01 07:14:45;;;;;;;56.53;12.40;;;20.80;53.30;;;;;;5012576;28;20256;-86
2023/06/01 07:17:13;;;;;;;29.57;9.70;;;20.80;53.30;;;;;;5011139;28;20217;-86
2023/06/01 07:19:40;;;;;;;27.63;9.80;;;20.80;53.30;;;;;;5014698;28;20205;-87
2023/06/01 07:22:07;;;;;;;27.90;10.17;;;20.80;53.30;;;;;;5013993;28;20210;-86
2023/06/01 07:24:36;;;;;;;21.70;10.03;;;20.80;53.80;;;;;;5013953;28;20244;-86
2023/06/01 07:27:03;;;;;;;65.47;12.43;;;20.80;53.30;;;;;;5011345;28;20745;-87
2023/06/01 07:29:30;;;;;;;29.97;9.37;;;20.80;53.30;;;;;;5012683;28;20325;-86
2023/06/01 07:31:57;;;;;;;40.53;11.30;;;20.80;53.30;;;;;;5013075;28;20231;-87
2023/06/01 07:34:27;;;;;;;30.00;10.00;;;20.80;53.40;;;;;;5016893;28;20216;-86
2023/06/01 07:36:54;;;;;;;35.37;10.37;;;20.80;53.30;;;;;;5016860;28;20260;-87
2023/06/01 07:39:22;;;;;;;46.27;11.47;;;20.80;53.30;;;;;;5012280;28;20621;-87
2023/06/01 07:41:53;;;;;;;27.50;8.67;;;20.90;53.40;;;;;;5012072;28;20666;-86
2023/06/01 07:44:20;;;;;;;24.00;8.83;;;20.90;53.40;;;;;;5014256;28;20200;-89
2023/06/01 07:46:47;;;;;;;28.63;9.53;;;20.90;53.40;;;;;;5011875;28;20193;-87
2023/06/01 07:49:15;;;;;;;33.83;9.23;;;20.90;53.40;;;;;;5011701;28;20260;-87
2023/06/01 07:51:42;;;;;;;45.27;10.43;;;20.90;53.40;;;;;;5009359;28;20278;-87
2023/06/01 07:54:09;;;;;;;31.10;10.13;;;20.90;53.40;;;;;;5007995;28;20198;-86
2023/06/01 07:56:37;;;;;;;25.53;9.03;;;20.90;54.00;;;;;;5013488;28;20208;-86
2023/06/01 07:59:06;;;;;;;46.73;14.53;;;20.90;53.40;;;;;;5010462;28;20316;-89
2023/06/01 08:01:37;;;;;;;35.90;13.07;;;20.90;53.70;;;;;;5009437;28;20210;-86
2023/06/01 08:04:04;;;;;;;75.03;15.60;;;20.90;53.80;;;;;;5008803;28;20213;-82
2023/06/01 08:06:38;;;;;;;43.20;13.20;;;21.00;53.70;;;;;;5009504;28;20204;-83
2023/06/01 08:09:05;;;;;;;41.03;12.27;;;21.00;53.70;;;;;;5009770;28;20984;-83
2023/06/01 08:11:32;;;;;;;46.03;13.17;;;21.00;53.60;;;;;;5006983;28;20205;-83
2023/06/01 08:14:01;;;;;;;33.37;12.50;;;21.00;53.60;;;;;;5009276;28;20194;-82
2023/06/01 08:16:30;;;;;;;78.07;15.03;;;21.00;53.60;;;;;;5005648;28;20210;-82
2023/06/01 08:18:57;;;;;;;37.83;12.27;;;21.00;53.60;;;;;;5002454;28;20216;-82
2023/06/01 08:21:24;;;;;;;32.90;11.53;;;21.00;53.60;;;;;;5007506;28;20215;-82
2023/06/01 08:23:52;;;;;;;34.50;12.20;;;21.10;53.70;;;;;;4995812;28;20300;-82
2023/06/01 08:26:20;;;;;;;41.27;12.70;;;21.10;53.70;;;;;;5005982;28;20576;-83
2023/06/01 08:28:51;;;;;;;33.90;11.53;;;21.10;53.70;;;;;;5007372;28;20233;-83
2023/06/01 08:31:18;;;;;;;54.53;12.27;;;21.10;53.80;;;;;;5008607;28;20201;-82
2023/06/01 08:33:47;;;;;;;32.80;11.50;;;21.10;53.70;;;;;;5008949;28;20215;-83
2023/06/01 08:36:14;;;;;;;40.73;14.67;;;21.20;53.80;;;;;;5008130;28;20214;-82
2023/06/01 08:38:41;;;;;;;35.67;14.10;;;21.20;53.90;;;;;;5006415;28;20292;-82
2023/06/01 08:41:16;;;;;;;39.37;13.30;;;21.20;53.90;;;;;;5008815;28;20301;-83
2023/06/01 08:43:46;;;;;;;32.53;12.60;;;21.20;53.90;;;;;;5008663;28;20646;-82
2023/06/01 08:46:16;;;;;;;52.97;14.37;;;21.30;54.50;;;;;;5000010;28;20224;-81
2023/06/01 08:48:46;;;;;;;35.13;13.57;;;21.30;53.90;;;;;;5005370;28;20234;-81
2023/06/01 08:51:13;;;;;;;33.60;12.17;;;21.30;53.90;;;;;;5006392;28;20200;-81
2023/06/01 08:53:42;;;;;;;34.07;12.80;;;21.30;53.90;;;;;;5008277;28;20229;-81
2023/06/01 08:56:09;;;;;;;35.70;11.40;;;21.30;53.90;;;;;;5006732;28;20208;-81
2023/06/01 08:58:37;;;;;;;43.47;12.13;;;21.30;53.90;;;;;;4988553;28;20655;-81
2023/06/01 09:01:05;;;;;;;36.10;11.73;;;21.30;54.00;;;;;;5005027;28;20200;-81
2023/06/01 09:03:31;;;;;;;44.93;12.90;;;21.40;54.00;;;;;;5010825;28;20205;-81
2023/06/01 09:06:00;;;;;;;33.73;11.80;;;21.40;54.00;;;;;;5008391;28;20558;-82
2023/06/01 09:08:27;;;;;;;32.50;11.43;;;21.40;54.00;;;;;;5008714;28;20239;-81
2023/06/01 09:10:55;;;;;;;31.87;11.40;;;21.40;54.00;;;;;;5009086;28;20197;-82
2023/06/01 09:13:35;;;;;;;34.60;11.90;;;21.50;54.10;;;;;;5006466;28;20208;-82
2023/06/01 09:16:02;;;;;;;27.17;11.20;;;21.50;54.20;;;;;;5002480;28;20205;-81
2023/06/01 09:18:30;;;;;;;50.87;13.37;;;21.50;54.70;;;;;;5002030;28;20199;-81
2023/06/01 09:21:12;;;;;;;35.00;12.30;;;21.50;54.10;;;;;;5006357;28;20677;-81
2023/06/01 09:23:39;;;;;;;36.30;11.43;;;21.60;54.30;;;;;;5005084;28;20206;-83
2023/06/01 09:26:06;;;;;;;33.33;10.90;;;21.60;54.20;;;;;;5001121;28;20208;-82
2023/06/01 09:28:53;;;;;;;31.70;11.10;;;21.60;54.20;;;;;;5006983;28;20229;-83
2023/06/01 09:31:39;;;;;;;46.87;11.73;;;21.70;54.40;;;;;;5003432;28;20259;-82
2023/06/01 09:34:06;;;;;;;58.80;13.23;;;21.70;54.40;;;;;;5006884;28;20212;-86
2023/06/01 09:36:35;;;;;;;31.63;10.57;;;21.70;54.20;;;;;;5007843;28;20207;-83
2023/06/01 09:39:05;;;;;;;40.03;11.83;;;21.80;54.40;;;;;;5006190;28;20209;-83
2023/06/01 09:41:52;;;;;;;34.63;11.50;;;21.80;54.40;;;;;;4998220;28;20202;-82
2023/06/01 09:44:27;;;;;;;34.30;11.27;;;21.80;54.50;;;;;;5007664;28;20266;-82
2023/06/01 09:46:55;;;;;;;32.00;10.97;;;21.80;54.40;;;;;;5008007;28;20204;-83
2023/06/01 09:49:26;;;;;;;34.93;10.73;;;21.90;54.40;;;;;;5007513;28;20233;-83
2023/06/01 09:52:08;;;;;;;34.40;10.27;;;21.90;54.50;;;;;;5006279;28;20219;-84
2023/06/01 09:54:37;;;;;;;30.30;10.43;;;22.00;54.60;;;;;;5007560;28;20217;-82
2023/06/01 09:57:06;;;;;;;39.57;10.97;;;22.00;54.50;;;;;;5009466;28;20207;-83
2023/06/01 09:59:40;;;;;;;32.07;11.00;;;22.10;54.60;;;;;;5011642;28;20301;-82
2023/06/01 10:02:09;;;;;;;39.23;10.30;;;22.10;54.70;;;;;;5009039;28;20210;-82
2023/06/01 10:04:40;;;;;;;35.70;10.63;;;22.10;54.70;;;;;;5011541;28;20256;-81
2023/06/01 10:07:10;;;;;;;34.83;10.73;;;22.20;54.70;;;;;;5011916;28;20197;-82
2023/06/01 10:09:39;;;;;;;29.13;10.20;;;22.20;54.70;;;;;;5011775;28;20234;-82
2023/06/01 10:12:08;;;;;;;34.93;10.37;;;22.20;54.70;;;;;;5010493;28;20675;-82
2023/06/01 10:14:36;;;;;;;33.37;10.03;;;22.30;54.70;;;;;;5011345;28;20292;-83
2023/06/01 10:17:04;;;;;;;34.70;10.73;;;22.30;54.70;;;;;;5010070;28;20219;-82
2023/06/01 10:19:31;;;;;;;43.07;10.77;;;22.30;54.70;;;;;;5010115;28;20212;-82
2023/06/01 10:21:58;;;;;;;44.13;11.27;;;22.40;54.80;;;;;;5009410;28;20213;-83
2023/06/01 10:24:28;;;;;;;36.00;10.87;;;22.50;54.90;;;;;;5009601;28;20229;-82
2023/06/01 10:27:05;;;;;;;36.27;9.87;;;22.50;54.90;;;;;;5007455;28;20201;-83
2023/06/01 10:29:32;;;;;;;29.13;9.70;;;22.50;54.90;;;;;;5006923;28;20217;-84
2023/06/01 10:31:59;;;;;;;32.67;9.90;;;22.50;54.80;;;;;;5010101;28;20225;-82
2023/06/01 10:34:40;;;;;;;51.70;11.43;;;22.60;54.90;;;;;;5009386;28;20671;-89
2023/06/01 10:37:17;;;;;;;27.33;9.70;;;22.60;54.90;;;;;;5012978;28;20291;-87
2023/06/01 10:39:46;;;;;;;32.20;10.40;;;22.70;54.90;;;;;;5013182;28;20201;-88
2023/06/01 10:42:36;;;;;;;33.53;9.53;;;22.70;54.90;;;;;;5021286;28;20201;-87
2023/06/01 10:45:03;;;;;;;45.40;10.50;;;22.80;55.00;;;;;;5019594;28;20213;-88
2023/06/01 10:47:47;;;;;;;34.13;9.33;;;22.80;54.90;;;;;;5013589;28;20244;-88
2023/06/01 10:50:19;;;;;;;34.13;9.53;;;22.80;55.00;;;;;;5013235;28;20268;-87
2023/06/01 10:52:48;;;;;;;36.37;9.70;;;22.90;55.00;;;;;;5013592;28;20300;-88
2023/06/01 10:55:24;;;;;;;35.20;9.00;;;22.90;55.00;;;;;;5011366;28;20185;-87
2023/06/01 10:57:52;;;;;;;35.60;9.63;;;22.80;54.90;;;;;;5014194;28;20205;-88
2023/06/01 11:00:22;;;;;;;34.23;9.03;;;23.00;55.10;;;;;;5015476;28;20217;-87
2023/06/01 11:02:54;;;;;;;30.17;8.57;;;23.00;55.10;;;;;;5015032;28;20267;-87
2023/06/01 11:05:43;;;;;;;33.37;8.17;;;23.10;55.20;;;;;;5016300;28;20296;-88
2023/06/01 11:08:30;;;;;;;44.87;9.80;;;23.10;55.20;;;;;;5013667;28;20213;-87
2023/06/01 11:11:02;;;;;;;39.30;8.77;;;23.10;55.10;;;;;;5011579;28;20240;-88
2023/06/01 11:13:32;;;;;;;30.37;8.53;;;23.20;55.10;;;;;;5013259;28;20623;-87
2023/06/01 11:16:32;;;;;;;39.00;8.90;;;23.20;55.10;;;;;;4974311;28;1138229;-87
2023/06/01 11:19:03;;;;;;;35.47;8.73;;;23.30;55.20;;;;;;5016469;28;20574;-88
2023/06/01 11:21:34;;;;;;;25.47;7.93;;;23.30;55.10;;;;;;5017918;28;20642;-88
2023/06/01 11:24:06;;;;;;;24.87;7.93;;;23.30;55.10;;;;;;5017063;28;20227;-87
2023/06/01 11:26:38;;;;;;;23.33;7.73;;;23.30;55.10;;;;;;5019285;28;20297;-89
2023/06/01 11:29:13;;;;;;;39.70;9.30;;;23.40;55.20;;;;;;5019148;28;20213;-88
2023/06/01 11:31:45;;;;;;;31.90;8.03;;;23.40;55.10;;;;;;5016872;28;20196;-88
2023/06/01 11:34:15;;;;;;;24.17;7.63;;;23.40;55.10;;;;;;5016864;28;20535;-88
2023/06/01 11:36:48;;;;;;;28.70;7.57;;;23.50;55.10;;;;;;5015935;28;20201;-88
2023/06/01 11:39:24;;;;;;;31.30;7.70;;;23.50;55.10;;;;;;5014805;28;20236;-88
2023/06/01 11:42:12;;;;;;;34.53;8.10;;;23.50;55.10;;;;;;5022877;28;20203;-88
2023/06/01 11:44:49;;;;;;;25.33;7.03;;;23.60;55.20;;;;;;5031669;28;20217;-89
2023/06/01 11:47:23;;;;;;;30.83;8.17;;;23.60;55.10;;;;;;5024692;28;20561;-89
2023/06/01 11:49:53;;;;;;;23.33;6.97;;;23.60;55.10;;;;;;5012919;28;20253;-89
2023/06/01 11:52:21;;;;;;;29.83;7.67;;;23.70;55.20;;;;;;5012688;28;20199;-89
2023/06/01 11:54:51;;;;;;;24.27;7.20;;;23.70;55.20;;;;;;5028294;28;20217;-88
2023/06/01 11:57:29;;;;;;;30.63;8.23;;;23.70;55.10;;;;;;5032902;28;20205;-88
2023/06/01 12:00:07;;;;;;;26.17;8.37;;;23.70;55.10;;;;;;5028191;28;20569;-88
2023/06/01 12:02:35;;;;;;;32.20;9.23;;;23.80;55.10;;;;;;5024537;28;20204;-87
2023/06/01 12:05:08;;;;;;;38.87;9.13;;;23.80;55.10;;;;;;5008610;28;20197;-87
2023/06/01 12:07:44;;;;;;;37.67;8.57;;;23.80;54.90;;;;;;5005701;28;20279;-89
2023/06/01 12:10:14;;;;;;;45.13;9.10;;;23.90;55.10;;;;;;4993170;28;20229;-87
2023/06/01 12:12:43;;;;;;;48.87;9.83;;;23.90;55.10;;;;;;5008618;28;20646;-87
2023/06/01 12:15:11;;;;;;;44.57;8.90;;;23.90;55.10;;;;;;5005106;28;20447;-88
2023/06/01 12:17:49;;;;;;;34.83;7.97;;;23.90;55.10;;;;;;5009112;28;20257;-87
2023/06/01 12:20:30;;;;;;;38.33;8.47;;;24.00;55.10;;;;;;5009728;28;20215;-93
2023/06/01 12:22:57;;;;;;;47.33;8.63;;;24.00;55.10;;;;;;5009018;28;20288;-88
2023/06/01 12:25:24;;;;;;;39.33;8.20;;;24.00;55.00;;;;;;5009186;28;20707;-87
2023/06/01 12:28:06;;;;;;;34.60;7.70;;;24.10;55.10;;;;;;5010078;28;20301;-87
2023/06/01 12:30:34;;;;;;;39.00;8.27;;;24.10;55.10;;;;;;5010524;28;20275;-87
2023/06/01 12:33:04;;;;;;;39.20;8.23;;;24.10;55.10;;;;;;5009438;28;20213;-88
2023/06/01 12:35:31;;;;;;;44.03;8.53;;;24.20;55.10;;;;;;5010079;28;20243;-88
2023/06/01 12:38:06;;;;;;;50.87;9.03;;;24.20;55.10;;;;;;5009968;28;20289;-88
2023/06/01 12:40:34;;;;;;;38.47;7.53;;;24.20;55.10;;;;;;5013454;28;20259;-90
2023/06/01 12:43:17;;;;;;;29.20;7.40;;;24.20;55.10;;;;;;5015185;28;20296;-89